createdAt,value
2019-04-03T00:00:07.282Z,45.84
2019-04-03T00:01:07.079Z,46.72
2019-04-03T00:02:07.068Z,46.62
2019-04-03T00:03:07.145Z,45.76
2019-04-03T00:04:07.381Z,45.86
2019-04-03T00:05:07.427Z,45.84
2019-04-03T00:06:07.972Z,44.88
2019-04-03T00:07:08.007Z,45.29
2019-04-03T00:08:08.697Z,44.88
2019-04-03T00:09:08.808Z,45.07
2019-04-03T00:10:08.817Z,44.88
2019-04-03T00:11:08.256Z,44.59
2019-04-03T00:12:06.396Z,44.79
2019-04-03T00:13:06.420Z,44.69
2019-04-03T00:14:06.396Z,44.79
2019-04-03T00:15:06.538Z,44.79
2019-04-03T00:16:06.392Z,44.88
2019-04-03T00:17:06.626Z,44.59
2019-04-03T00:18:06.592Z,44.98
2019-04-03T00:19:06.397Z,45.57
2019-04-03T00:20:06.371Z,46.12
2019-04-03T00:21:06.154Z,46.7
2019-04-03T00:22:06.475Z,46.7
2019-04-03T00:23:06.367Z,46.98
2019-04-03T00:24:06.372Z,47.18
2019-04-03T00:25:06.380Z,47.75
2019-04-03T00:26:06.119Z,47.85
2019-04-03T00:27:06.365Z,47.94
2019-04-03T00:28:06.120Z,47.66
2019-04-03T00:29:06.503Z,47.56
2019-04-03T00:30:06.122Z,47.94
2019-04-03T00:31:06.461Z,49
2019-04-03T00:32:06.371Z,48.9
2019-04-03T00:33:06.152Z,48.71
2019-04-03T00:34:06.350Z,48.71
2019-04-03T00:35:06.355Z,48.71
2019-04-03T00:36:06.343Z,49.38
2019-04-03T00:37:06.416Z,49.38
2019-04-03T00:38:06.152Z,48.21
2019-04-03T00:39:06.346Z,47.73
2019-04-03T00:40:06.427Z,47.63
2019-04-03T00:41:06.351Z,47.63
2019-04-03T00:42:06.334Z,46.77
2019-04-03T00:43:06.108Z,47.44
2019-04-03T00:44:06.104Z,46.96
2019-04-03T00:45:06.326Z,46.48
2019-04-03T00:46:06.482Z,47.47
2019-04-03T00:47:06.330Z,47.73
2019-04-03T00:48:06.110Z,46.87
2019-04-03T00:49:07.145Z,46.87
2019-04-03T00:50:09.359Z,46.7
2019-04-03T00:51:07.479Z,46.39
2019-04-03T00:52:06.313Z,46.39
2019-04-03T00:53:06.497Z,46.67
2019-04-03T00:54:06.331Z,46.61
2019-04-03T00:55:06.388Z,46.87
2019-04-03T00:56:06.500Z,46.77
2019-04-03T00:57:06.315Z,47.08
2019-04-03T00:58:06.073Z,46.77
2019-04-03T00:59:06.121Z,46.96
2019-04-03T01:00:06.453Z,46.58
2019-04-03T01:01:06.073Z,46.48
2019-04-03T01:02:06.397Z,46.41
2019-04-03T01:03:06.089Z,46.7
2019-04-03T01:04:06.063Z,46.8
2019-04-03T01:05:06.461Z,47.16
2019-04-03T01:06:06.064Z,47.53
2019-04-03T01:07:06.300Z,48.39
2019-04-03T01:08:06.282Z,48.78
2019-04-03T01:09:06.285Z,48.97
2019-04-03T01:10:06.277Z,49.26
2019-04-03T01:11:06.278Z,49.07
2019-04-03T01:12:06.272Z,48.68
2019-04-03T01:13:06.274Z,48.68
2019-04-03T01:14:06.437Z,49.26
2019-04-03T01:15:06.286Z,49.55
2019-04-03T01:16:06.455Z,49.84
2019-04-03T01:17:06.923Z,50.02
2019-04-03T01:18:07.571Z,50.6
2019-04-03T01:19:08.496Z,50.89
2019-04-03T01:20:08.564Z,51.75
2019-04-03T01:21:08.792Z,52.32
2019-04-03T01:22:07.709Z,52.03
2019-04-03T01:23:07.242Z,52.03
2019-04-03T01:24:08.259Z,52.13
2019-04-03T01:25:08.169Z,52.03
2019-04-03T01:26:06.261Z,53.37
2019-04-03T01:27:06.028Z,53.47
2019-04-03T01:28:06.259Z,54.52
2019-04-03T01:29:06.260Z,55
2019-04-03T01:30:06.271Z,55.38
2019-04-03T01:31:06.259Z,56.24
2019-04-03T01:32:06.023Z,56.82
2019-04-03T01:33:06.249Z,56.21
2019-04-03T01:34:06.007Z,55.54
2019-04-03T01:35:08.883Z,57.17
2019-04-03T01:36:06.117Z,59.08
2019-04-03T01:37:06.251Z,60.52
2019-04-03T01:38:06.523Z,60.9
2019-04-03T01:39:06.228Z,62.62
2019-04-03T01:40:06.228Z,60.33
2019-04-03T01:41:06.230Z,60.8
2019-04-03T01:42:06.409Z,60.13
2019-04-03T01:43:06.248Z,58.12
2019-04-03T01:44:06.222Z,57.55
2019-04-03T01:45:06.291Z,61.38
2019-04-03T01:46:06.238Z,61.47
2019-04-03T01:47:06.210Z,61.66
2019-04-03T01:48:06.210Z,62.52
2019-04-03T01:49:05.954Z,65.01
2019-04-03T01:50:06.196Z,65.2
2019-04-03T01:51:05.961Z,66.25
2019-04-03T01:52:06.000Z,66.63
2019-04-03T01:53:06.203Z,65.2
2019-04-03T01:54:06.198Z,63
2019-04-03T01:55:06.548Z,62.33
2019-04-03T01:56:07.301Z,63.93
2019-04-03T01:57:08.427Z,64.88
2019-04-03T01:58:08.613Z,64.31
2019-04-03T01:59:08.588Z,64.22
2019-04-03T02:00:07.428Z,65.55
2019-04-03T02:01:06.274Z,68.13
2019-04-03T02:02:06.666Z,67.08
2019-04-03T02:03:05.925Z,65.74
2019-04-03T02:04:06.185Z,64.12
2019-04-03T02:05:06.195Z,63.45
2019-04-03T02:06:05.926Z,64.22
2019-04-03T02:07:05.943Z,64.5
2019-04-03T02:08:06.270Z,64.4
2019-04-03T02:09:05.906Z,65.74
2019-04-03T02:10:05.902Z,65.07
2019-04-03T02:11:06.377Z,64.78
2019-04-03T02:12:06.144Z,64.5
2019-04-03T02:13:05.922Z,65.36
2019-04-03T02:14:06.145Z,66.6
2019-04-03T02:15:06.135Z,68.41
2019-04-03T02:16:09.195Z,68.9
2019-04-03T02:17:12.512Z,66.99
2019-04-03T02:18:05.882Z,66.31
2019-04-03T02:19:06.210Z,66.89
2019-04-03T02:20:09.180Z,67.94
2019-04-03T02:21:06.257Z,69.37
2019-04-03T02:22:05.881Z,70.23
2019-04-03T02:23:05.881Z,68.99
2019-04-03T02:24:05.869Z,69.95
2019-04-03T02:25:06.211Z,71
2019-04-03T02:26:05.874Z,70.23
2019-04-03T02:27:06.124Z,70.71
2019-04-03T02:28:06.954Z,69.27
2019-04-03T02:29:08.647Z,68.7
2019-04-03T18:34:00.681Z,99.99
2019-04-03T18:35:00.377Z,99.99
2019-04-03T18:36:00.600Z,99.99
2019-04-03T18:37:01.808Z,99.99
2019-04-03T18:38:00.588Z,99.99
2019-04-03T18:39:01.374Z,99.99
2019-04-03T18:40:00.318Z,99.99
2019-04-03T18:41:00.304Z,99.99
2019-04-03T18:42:00.292Z,99.99
2019-04-03T18:43:00.536Z,99.99
2019-04-03T18:44:00.520Z,99.99
2019-04-03T18:45:00.698Z,99.99
2019-04-03T18:46:02.281Z,99.99
2019-04-03T18:47:00.287Z,99.99
2019-04-03T18:48:00.497Z,99.99
2019-04-03T18:49:03.519Z,99.99
2019-04-03T18:50:02.739Z,99.99
2019-04-03T18:51:00.467Z,99.99
2019-04-03T18:52:00.458Z,99.99
2019-04-03T18:53:00.204Z,99.99
2019-04-03T18:54:00.209Z,99.99
2019-04-03T18:55:00.189Z,99.99
2019-04-03T18:56:00.449Z,99.99
2019-04-03T18:57:00.433Z,99.99
2019-04-03T18:58:00.444Z,99.99
2019-04-03T18:59:00.436Z,99.99
2019-04-03T19:00:03.078Z,99.99
2019-04-03T19:01:01.754Z,99.99
2019-04-03T19:02:01.960Z,99.99
2019-04-03T19:03:00.390Z,99.99
2019-04-03T19:04:00.126Z,99.99
2019-04-03T19:05:04.572Z,99.99
2019-04-03T19:06:02.170Z,99.99
2019-04-03T19:07:00.391Z,99.99
2019-04-03T19:08:12.044Z,99.99
2019-04-03T19:09:12.234Z,99.99
2019-04-03T19:10:09.683Z,99.99
2019-04-03T19:11:09.249Z,99.99
2019-04-03T19:12:12.514Z,99.99
2019-04-03T19:13:00.137Z,99.99
2019-04-03T19:14:00.059Z,99.99
2019-04-03T19:15:02.409Z,99.99
2019-04-03T19:16:02.103Z,99.99
2019-04-03T19:17:00.049Z,99.99
2019-04-03T19:18:13.287Z,99.99
2019-04-03T19:19:10.259Z,99.99
2019-04-03T19:20:12.466Z,99.99
2019-04-03T19:21:00.021Z,99.99
2019-04-03T19:22:00.262Z,99.99
2019-04-03T19:23:07.051Z,99.99
2019-04-03T19:24:00.245Z,99.99
2019-04-03T19:25:00.976Z,99.99
2019-04-03T19:26:02.179Z,99.99
2019-04-03T19:27:02.120Z,99.99
2019-04-03T19:28:00.212Z,99.99
2019-04-03T19:29:00.215Z,99.99
2019-04-03T19:30:00.206Z,99.99
2019-04-03T19:30:59.952Z,99.99
2019-04-03T19:32:00.317Z,99.99
2019-04-03T19:33:00.238Z,99.99
2019-04-03T19:34:00.209Z,99.99
2019-04-03T19:35:00.209Z,99.99
2019-04-03T19:36:01.622Z,99.99
2019-04-03T19:37:02.637Z,99.99
2019-04-03T19:37:59.926Z,99.99
2019-04-03T19:38:59.905Z,99.99
2019-04-03T19:40:01.469Z,99.99
2019-04-03T19:40:59.888Z,99.99
2019-04-03T19:41:59.898Z,99.99
2019-04-03T19:43:00.131Z,99.99
2019-04-03T19:44:03.147Z,99.99
2019-04-03T19:44:59.874Z,99.99
2019-04-03T19:46:00.105Z,99.99
2019-04-03T19:46:59.846Z,99.99
2019-04-03T19:47:59.846Z,99.99
2019-04-03T19:49:00.120Z,99.99
2019-04-03T19:50:02.593Z,99.99
2019-04-03T19:51:02.570Z,99.99
2019-04-03T19:52:00.058Z,99.99
2019-04-03T19:53:00.052Z,99.99
2019-04-03T19:54:02.152Z,99.99
2019-04-03T19:55:00.054Z,99.99
2019-04-03T19:56:00.053Z,99.99
2019-04-03T19:57:00.905Z,99.99
2019-04-03T19:58:00.757Z,99.99
2019-04-03T19:59:04.553Z,99.99
2019-04-03T20:00:00.979Z,99.99
2019-04-03T20:00:59.757Z,99.99
2019-04-03T20:01:59.997Z,99.99
2019-04-03T20:02:59.999Z,99.99
2019-04-03T20:03:59.982Z,99.99
2019-04-03T20:04:59.987Z,99.99
2019-04-03T20:05:59.976Z,99.99
2019-04-03T20:06:59.722Z,99.99
2019-04-03T20:08:01.709Z,99.99
2019-04-03T20:09:03.015Z,99.99
2019-04-03T20:10:02.716Z,99.99
2019-04-03T20:10:59.942Z,99.99
2019-04-03T20:11:59.697Z,99.99
2019-04-03T20:12:59.923Z,99.99
2019-04-03T20:13:59.921Z,99.99
2019-04-03T20:15:02.326Z,99.99
2019-04-03T20:15:59.667Z,99.99
2019-04-03T20:17:00.743Z,99.99
2019-04-03T20:17:59.899Z,99.99
2019-04-03T20:18:59.664Z,99.99
2019-04-03T20:20:00.390Z,99.99
2019-04-03T20:20:59.631Z,99.99
2019-04-03T20:21:59.620Z,99.99
2019-04-03T20:22:59.871Z,99.99
2019-04-03T20:23:59.871Z,99.99
2019-04-03T20:25:02.549Z,99.99
2019-04-03T20:25:59.854Z,99.99
2019-04-03T20:26:59.596Z,99.99
2019-04-03T20:28:00.090Z,99.99
2019-04-03T20:29:02.054Z,99.99
2019-04-03T20:30:02.936Z,99.99
2019-04-03T20:30:59.805Z,99.99
2019-04-03T20:31:59.806Z,99.99
2019-04-03T20:32:59.797Z,99.99
2019-04-03T20:33:59.787Z,99.99
2019-04-03T20:34:59.788Z,99.99
2019-04-03T20:35:59.770Z,99.99
2019-04-03T20:36:59.761Z,99.44
2019-04-03T20:38:00.109Z,99.26
2019-04-03T20:39:00.766Z,99.99
2019-04-03T20:40:02.236Z,99.92
2019-04-03T20:41:02.715Z,99.99
2019-04-03T20:41:59.741Z,99.99
2019-04-03T20:42:59.774Z,99.99
2019-04-03T20:43:59.716Z,99.99
2019-04-03T20:44:59.708Z,99.26
2019-04-03T20:45:59.719Z,98.97
2019-04-03T20:46:59.717Z,98.69
2019-04-03T20:48:00.116Z,99.35
2019-04-03T20:49:03.016Z,98.69
2019-04-03T20:49:59.725Z,98.79
2019-04-03T20:50:59.742Z,98.69
2019-04-03T20:51:59.407Z,98.5
2019-04-03T20:52:59.705Z,99.64
2019-04-03T20:53:59.397Z,98.97
2019-04-03T20:54:59.649Z,99.83
2019-04-03T20:56:01.265Z,99.44
2019-04-03T20:57:02.430Z,99.35
2019-04-03T20:57:59.624Z,99.99
2019-04-03T20:58:59.609Z,99.99
2019-04-03T21:00:04.696Z,99.99
2019-04-03T21:01:08.768Z,99.99
2019-04-03T21:01:59.646Z,99.99
2019-04-03T21:02:59.340Z,99.99
2019-04-03T21:03:59.602Z,99.99
2019-04-03T21:04:59.573Z,99.99
2019-04-03T21:05:59.647Z,99.99
2019-04-03T21:06:59.317Z,99.99
2019-04-03T21:07:59.305Z,99.99
2019-04-03T21:09:01.892Z,99.99
2019-04-03T21:10:00.831Z,99.99
2019-04-03T21:11:01.708Z,99.99
2019-04-03T21:11:59.274Z,99.99
2019-04-03T21:12:59.511Z,99.99
2019-04-03T21:13:59.264Z,99.99
2019-04-03T21:15:13.278Z,99.99
2019-04-03T21:15:59.241Z,99.99
2019-04-03T21:17:00.040Z,99.99
2019-04-03T21:17:59.469Z,99.99
2019-04-03T21:18:59.469Z,99.16
2019-04-03T21:19:59.459Z,99.73
2019-04-03T21:21:01.330Z,99.99
2019-04-03T21:22:01.882Z,99.99
2019-04-03T21:22:59.498Z,99.99
2019-04-03T21:23:59.459Z,99.99
2019-04-03T21:24:59.180Z,99.99
2019-04-03T21:25:59.443Z,99.99
2019-04-03T21:26:59.416Z,99.99
2019-04-03T21:27:59.163Z,99.99
2019-04-03T21:28:59.394Z,99.99
2019-04-03T21:30:00.761Z,99.73
2019-04-03T21:30:59.404Z,99.99
2019-04-03T21:31:59.567Z,99.16
2019-04-03T21:33:01.991Z,99.64
2019-04-03T21:34:01.494Z,98.88
2019-04-03T21:34:59.403Z,98.59
2019-04-03T21:35:59.099Z,98.02
2019-04-03T21:36:59.345Z,98.97
2019-04-03T21:37:59.338Z,98.79
2019-04-03T21:38:59.075Z,98.79
2019-04-03T21:40:01.950Z,98.69
2019-04-03T21:40:59.067Z,98.12
2019-04-03T21:41:59.324Z,98.4
2019-04-03T21:43:00.715Z,98.31
2019-04-03T21:44:01.911Z,98.59
2019-04-03T21:45:02.149Z,98.31
2019-04-03T21:45:59.280Z,98.79
2019-04-03T21:46:59.274Z,98.02
2019-04-03T21:47:59.024Z,98.12
2019-04-03T21:48:59.253Z,98.5
2019-04-03T21:49:59.251Z,98.59
2019-04-03T21:50:59.247Z,99.44
2019-04-03T21:51:59.247Z,98.88
2019-04-03T21:52:58.983Z,99.44
2019-04-03T21:53:58.977Z,98.59
2019-04-03T21:55:01.052Z,97.07
2019-04-03T21:56:01.660Z,97.83
2019-04-03T21:56:59.193Z,97.74
2019-04-03T21:57:58.938Z,96.22
2019-04-03T21:58:58.973Z,97.17
2019-04-03T21:59:59.173Z,97.55
2019-04-03T22:01:01.089Z,98.02
2019-04-03T22:01:59.168Z,97.07
2019-04-03T22:02:58.917Z,97.74
2019-04-03T22:03:59.151Z,98.02
2019-04-03T22:04:59.141Z,97.45
2019-04-03T22:05:58.883Z,96.41
2019-04-03T22:07:00.664Z,96.31
2019-04-03T22:08:00.661Z,95.94
2019-04-03T22:09:02.118Z,95.55
2019-04-03T22:09:59.946Z,95.08
2019-04-03T22:10:59.093Z,94.98
2019-04-03T22:11:58.837Z,95.36
2019-04-03T22:12:59.089Z,96.31
2019-04-03T22:13:59.065Z,97.17
2019-04-03T22:14:58.821Z,97.92
2019-04-03T22:15:59.066Z,98.31
2019-04-03T22:16:59.067Z,98.4
2019-04-03T22:17:59.052Z,97.64
2019-04-03T22:18:59.049Z,96.88
2019-04-03T22:20:00.944Z,97.27
2019-04-03T22:20:59.877Z,97.07
2019-04-03T22:21:59.030Z,95.75
2019-04-03T22:22:59.009Z,94.23
2019-04-03T22:23:59.000Z,94.32
2019-04-03T22:24:58.746Z,94.7
2019-04-03T22:25:58.736Z,94.89
2019-04-03T22:26:58.977Z,96.69
2019-04-03T22:27:58.979Z,99.07
2019-04-03T22:28:58.978Z,99.11
2019-04-03T22:29:58.962Z,98.59
2019-04-03T22:30:58.974Z,98.93
2019-04-03T23:03:56.561Z,99.99
2019-04-03T23:04:56.548Z,99.99
2019-04-03T23:05:56.783Z,99.99
2019-04-03T23:06:56.770Z,99.99
2019-04-03T23:07:56.791Z,99.99
2019-04-03T23:08:56.891Z,99.99
2019-04-03T23:09:59.190Z,99.99
2019-04-03T23:10:56.719Z,99.99
2019-04-03T23:11:56.735Z,99.99
2019-04-03T23:12:56.461Z,99.99
2019-04-03T23:13:56.708Z,99.99
2019-04-03T23:14:56.694Z,99.99
2019-04-03T23:15:56.684Z,99.99
2019-04-03T23:16:56.669Z,99.99
2019-04-03T23:17:56.407Z,99.99
2019-04-03T23:18:56.655Z,99.99
2019-04-03T23:19:56.409Z,99.99
2019-04-03T23:20:56.633Z,99.99
2019-04-03T23:21:57.487Z,99.99
2019-04-03T23:22:58.830Z,99.99
2019-04-03T23:23:58.433Z,99.99
2019-04-03T23:24:59.220Z,99.99
2019-04-03T23:25:56.606Z,99.99
2019-04-03T23:26:56.589Z,99.99
2019-04-03T23:27:56.594Z,99.99
2019-04-03T23:28:56.568Z,99.99
2019-04-03T23:29:56.313Z,99.99
2019-04-03T23:30:56.308Z,99.99
2019-04-03T23:31:56.546Z,99.99
2019-04-03T23:32:56.299Z,99.99
2019-04-03T23:33:56.527Z,99.99
2019-04-03T23:34:56.524Z,99.99
2019-04-03T23:35:56.516Z,99.99
2019-04-03T23:36:57.194Z,99.99
2019-04-03T23:37:58.676Z,99.99
2019-04-03T23:38:58.949Z,99.99
2019-04-03T23:39:56.489Z,99.99
2019-04-03T23:40:56.474Z,99.99
2019-04-03T23:41:56.222Z,99.99
2019-04-03T23:42:56.473Z,99.99
2019-04-03T23:43:56.459Z,99.99
2019-04-03T23:44:56.207Z,99.99
2019-04-03T23:45:56.498Z,99.99
2019-04-03T23:46:56.444Z,99.99
2019-04-03T23:47:56.799Z,99.99
2019-04-03T23:48:56.172Z,99.99
2019-04-03T23:49:56.436Z,99.99
2019-04-03T23:50:56.407Z,99.99
2019-04-03T23:51:57.014Z,99.99
2019-04-03T23:52:56.405Z,99.99
2019-04-03T23:53:56.387Z,99.99
2019-04-03T23:54:56.143Z,99.99
2019-04-03T23:55:56.394Z,99.99
2019-04-03T23:56:56.363Z,99.99
2019-04-03T23:57:56.366Z,99.99
2019-04-03T23:58:56.102Z,99.99
2019-04-03T23:59:56.110Z,99.99
